sensor_id;sensor_type;location;lat;lon;timestamp;temperature;humidity
13711;DHT22;6927;51.256;9.410;2023-08-07T00:02:04;13.10;99.90
13711;DHT22;6927;51.256;9.410;2023-08-07T00:04:29;13.10;99.90
13711;DHT22;6927;51.256;9.410;2023-08-07T00:06:55;13.10;99.90
13711;DHT22;6927;51.256;9.410;2023-08-07T00:09:20;13.10;99.90
13711;DHT22;6927;51.256;9.410;2023-08-07T00:11:46;13.10;99.90
13711;DHT22;6927;51.256;9.410;2023-08-07T00:14:11;13.10;99.90
13711;DHT22;6927;51.256;9.410;2023-08-07T00:16:37;13.10;99.90
13711;DHT22;6927;51.256;9.410;2023-08-07T00:19:03;13.10;99.90
13711;DHT22;6927;51.256;9.410;2023-08-07T00:21:28;13.20;99.90
13711;DHT22;6927;51.256;9.410;2023-08-07T00:23:54;13.10;99.90
13711;DHT22;6927;51.256;9.410;2023-08-07T00:26:20;13.10;99.90
13711;DHT22;6927;51.256;9.410;2023-08-07T00:28:46;13.10;99.90
13711;DHT22;6927;51.256;9.410;2023-08-07T00:31:12;13.10;99.90
13711;DHT22;6927;51.256;9.410;2023-08-07T00:33:38;13.10;99.90
13711;DHT22;6927;51.256;9.410;2023-08-07T00:36:04;13.20;99.90
13711;DHT22;6927;51.256;9.410;2023-08-07T00:38:29;13.10;99.90
13711;DHT22;6927;51.256;9.410;2023-08-07T00:40:55;13.20;99.90
13711;DHT22;6927;51.256;9.410;2023-08-07T00:43:21;13.20;99.90
13711;DHT22;6927;51.256;9.410;2023-08-07T00:45:47;13.20;99.90
13711;DHT22;6927;51.256;9.410;2023-08-07T00:48:14;13.20;99.90
13711;DHT22;6927;51.256;9.410;2023-08-07T00:50:42;13.20;99.90
13711;DHT22;6927;51.256;9.410;2023-08-07T00:53:08;13.20;99.90
13711;DHT22;6927;51.256;9.410;2023-08-07T00:55:34;13.20;99.90
13711;DHT22;6927;51.256;9.410;2023-08-07T00:58:00;13.20;99.90
13711;DHT22;6927;51.256;9.410;2023-08-07T01:00:28;13.20;99.90
13711;DHT22;6927;51.256;9.410;2023-08-07T01:02:55;13.20;99.90
13711;DHT22;6927;51.256;9.410;2023-08-07T01:05:21;13.20;99.90
13711;DHT22;6927;51.256;9.410;2023-08-07T01:07:47;13.30;99.90
13711;DHT22;6927;51.256;9.410;2023-08-07T01:10:14;13.20;99.90
13711;DHT22;6927;51.256;9.410;2023-08-07T01:12:52;13.20;99.90
13711;DHT22;6927;51.256;9.410;2023-08-07T01:15:30;13.20;99.90
13711;DHT22;6927;51.256;9.410;2023-08-07T01:17:56;13.30;99.90
13711;DHT22;6927;51.256;9.410;2023-08-07T01:20:23;13.30;99.90
13711;DHT22;6927;51.256;9.410;2023-08-07T01:22:49;13.20;99.90
13711;DHT22;6927;51.256;9.410;2023-08-07T01:25:16;13.20;99.90
13711;DHT22;6927;51.256;9.410;2023-08-07T01:27:50;13.20;99.90
13711;DHT22;6927;51.256;9.410;2023-08-07T01:30:29;13.20;99.90
13711;DHT22;6927;51.256;9.410;2023-08-07T01:35:47;13.30;99.90
13711;DHT22;6927;51.256;9.410;2023-08-07T01:38:15;13.30;99.90
13711;DHT22;6927;51.256;9.410;2023-08-07T01:40:42;13.30;99.90
13711;DHT22;6927;51.256;9.410;2023-08-07T01:43:08;13.30;99.90
13711;DHT22;6927;51.256;9.410;2023-08-07T01:45:34;13.30;99.90
13711;DHT22;6927;51.256;9.410;2023-08-07T01:48:00;13.30;99.90
13711;DHT22;6927;51.256;9.410;2023-08-07T01:50:26;13.30;99.90
13711;DHT22;6927;51.256;9.410;2023-08-07T01:52:52;13.30;99.90
13711;DHT22;6927;51.256;9.410;2023-08-07T01:55:18;13.30;99.90
13711;DHT22;6927;51.256;9.410;2023-08-07T01:57:44;13.40;99.90
13711;DHT22;6927;51.256;9.410;2023-08-07T02:00:10;13.30;99.90
13711;DHT22;6927;51.256;9.410;2023-08-07T02:02:36;13.30;99.90
13711;DHT22;6927;51.256;9.410;2023-08-07T02:05:03;13.30;99.90
13711;DHT22;6927;51.256;9.410;2023-08-07T02:07:29;13.30;99.90
13711;DHT22;6927;51.256;9.410;2023-08-07T02:09:55;13.20;99.90
13711;DHT22;6927;51.256;9.410;2023-08-07T02:12:20;13.20;99.90
13711;DHT22;6927;51.256;9.410;2023-08-07T02:14:46;13.20;99.90
13711;DHT22;6927;51.256;9.410;2023-08-07T02:17:12;13.20;99.90
13711;DHT22;6927;51.256;9.410;2023-08-07T02:19:37;13.20;99.90
13711;DHT22;6927;51.256;9.410;2023-08-07T02:22:03;13.20;99.90
13711;DHT22;6927;51.256;9.410;2023-08-07T02:24:29;13.20;99.90
13711;DHT22;6927;51.256;9.410;2023-08-07T02:26:55;13.20;99.90
13711;DHT22;6927;51.256;9.410;2023-08-07T02:29:20;13.20;99.90
13711;DHT22;6927;51.256;9.410;2023-08-07T02:31:46;13.10;99.90
13711;DHT22;6927;51.256;9.410;2023-08-07T02:34:11;13.20;99.90
13711;DHT22;6927;51.256;9.410;2023-08-07T02:36:37;13.20;99.90
13711;DHT22;6927;51.256;9.410;2023-08-07T02:39:04;13.10;99.90
13711;DHT22;6927;51.256;9.410;2023-08-07T02:41:29;13.20;99.90
13711;DHT22;6927;51.256;9.410;2023-08-07T02:43:57;13.20;99.90
13711;DHT22;6927;51.256;9.410;2023-08-07T02:46:22;13.10;99.90
13711;DHT22;6927;51.256;9.410;2023-08-07T02:48:48;13.20;99.90
13711;DHT22;6927;51.256;9.410;2023-08-07T02:51:13;13.20;99.90
13711;DHT22;6927;51.256;9.410;2023-08-07T02:53:39;13.20;99.90
13711;DHT22;6927;51.256;9.410;2023-08-07T02:56:05;13.20;99.90
13711;DHT22;6927;51.256;9.410;2023-08-07T02:58:30;13.20;99.90
13711;DHT22;6927;51.256;9.410;2023-08-07T03:01:07;13.20;99.90
13711;DHT22;6927;51.256;9.410;2023-08-07T03:03:33;13.20;99.90
13711;DHT22;6927;51.256;9.410;2023-08-07T03:06:04;13.20;99.90
13711;DHT22;6927;51.256;9.410;2023-08-07T03:08:30;13.20;99.90
13711;DHT22;6927;51.256;9.410;2023-08-07T03:10:57;13.20;99.90
13711;DHT22;6927;51.256;9.410;2023-08-07T03:13:24;13.20;99.90
13711;DHT22;6927;51.256;9.410;2023-08-07T03:15:54;13.20;99.90
13711;DHT22;6927;51.256;9.410;2023-08-07T03:18:23;13.20;99.90
13711;DHT22;6927;51.256;9.410;2023-08-07T03:20:49;13.20;99.90
13711;DHT22;6927;51.256;9.410;2023-08-07T03:23:15;13.20;99.90
13711;DHT22;6927;51.256;9.410;2023-08-07T03:25:40;13.20;99.90
13711;DHT22;6927;51.256;9.410;2023-08-07T03:28:09;13.20;99.90
13711;DHT22;6927;51.256;9.410;2023-08-07T03:30:34;13.30;99.90
13711;DHT22;6927;51.256;9.410;2023-08-07T03:33:00;13.30;99.90
13711;DHT22;6927;51.256;9.410;2023-08-07T03:35:27;13.30;99.90
13711;DHT22;6927;51.256;9.410;2023-08-07T03:37:52;13.30;99.90
13711;DHT22;6927;51.256;9.410;2023-08-07T03:40:18;13.30;99.90
13711;DHT22;6927;51.256;9.410;2023-08-07T03:42:47;13.30;99.90
13711;DHT22;6927;51.256;9.410;2023-08-07T03:45:13;13.30;99.90
13711;DHT22;6927;51.256;9.410;2023-08-07T03:47:39;13.30;99.90
13711;DHT22;6927;51.256;9.410;2023-08-07T03:50:06;13.30;99.90
13711;DHT22;6927;51.256;9.410;2023-08-07T03:52:31;13.40;99.90
13711;DHT22;6927;51.256;9.410;2023-08-07T03:54:57;13.40;99.90
13711;DHT22;6927;51.256;9.410;2023-08-07T03:57:29;13.40;99.90
13711;DHT22;6927;51.256;9.410;2023-08-07T03:59:54;13.40;99.90
13711;DHT22;6927;51.256;9.410;2023-08-07T04:02:20;13.40;99.90
13711;DHT22;6927;51.256;9.410;2023-08-07T04:04:46;13.40;99.90
13711;DHT22;6927;51.256;9.410;2023-08-07T04:07:13;13.40;99.90
13711;DHT22;6927;51.256;9.410;2023-08-07T04:09:39;13.40;99.90
13711;DHT22;6927;51.256;9.410;2023-08-07T04:12:05;13.40;99.90
13711;DHT22;6927;51.256;9.410;2023-08-07T04:14:31;13.40;99.90
13711;DHT22;6927;51.256;9.410;2023-08-07T04:16:59;13.40;99.90
13711;DHT22;6927;51.256;9.410;2023-08-07T04:19:31;13.40;99.90
13711;DHT22;6927;51.256;9.410;2023-08-07T04:22:08;13.40;99.90
13711;DHT22;6927;51.256;9.410;2023-08-07T04:25:05;13.50;99.90
13711;DHT22;6927;51.256;9.410;2023-08-07T04:27:33;13.50;99.90
13711;DHT22;6927;51.256;9.410;2023-08-07T04:29:59;13.50;99.90
13711;DHT22;6927;51.256;9.410;2023-08-07T04:32:25;13.50;99.90
13711;DHT22;6927;51.256;9.410;2023-08-07T04:35:02;13.50;99.90
13711;DHT22;6927;51.256;9.410;2023-08-07T04:37:29;13.40;99.90
13711;DHT22;6927;51.256;9.410;2023-08-07T04:40:01;13.40;99.90
13711;DHT22;6927;51.256;9.410;2023-08-07T04:42:32;13.30;99.90
13711;DHT22;6927;51.256;9.410;2023-08-07T04:44:58;13.20;99.90
13711;DHT22;6927;51.256;9.410;2023-08-07T04:47:23;13.20;99.90
13711;DHT22;6927;51.256;9.410;2023-08-07T04:49:52;13.10;99.90
13711;DHT22;6927;51.256;9.410;2023-08-07T04:52:18;13.10;99.90
13711;DHT22;6927;51.256;9.410;2023-08-07T04:54:43;13.10;99.90
13711;DHT22;6927;51.256;9.410;2023-08-07T04:57:09;13.20;99.90
13711;DHT22;6927;51.256;9.410;2023-08-07T04:59:35;13.10;99.90
13711;DHT22;6927;51.256;9.410;2023-08-07T05:02:01;13.10;99.90
13711;DHT22;6927;51.256;9.410;2023-08-07T05:04:33;13.10;99.90
13711;DHT22;6927;51.256;9.410;2023-08-07T05:06:58;13.10;99.90
13711;DHT22;6927;51.256;9.410;2023-08-07T05:09:24;13.10;99.90
13711;DHT22;6927;51.256;9.410;2023-08-07T05:11:50;13.20;99.90
13711;DHT22;6927;51.256;9.410;2023-08-07T05:14:15;13.20;99.90
13711;DHT22;6927;51.256;9.410;2023-08-07T05:17:09;13.20;99.90
13711;DHT22;6927;51.256;9.410;2023-08-07T05:19:34;13.20;99.90
13711;DHT22;6927;51.256;9.410;2023-08-07T05:22:00;13.20;99.90
13711;DHT22;6927;51.256;9.410;2023-08-07T05:24:25;13.20;99.90
13711;DHT22;6927;51.256;9.410;2023-08-07T05:26:51;13.20;99.90
13711;DHT22;6927;51.256;9.410;2023-08-07T05:29:17;13.20;99.90
13711;DHT22;6927;51.256;9.410;2023-08-07T05:31:42;13.20;99.90
13711;DHT22;6927;51.256;9.410;2023-08-07T05:34:08;13.20;99.90
13711;DHT22;6927;51.256;9.410;2023-08-07T05:36:33;13.20;99.90
13711;DHT22;6927;51.256;9.410;2023-08-07T05:38:59;13.20;99.90
13711;DHT22;6927;51.256;9.410;2023-08-07T05:41:24;13.20;99.90
13711;DHT22;6927;51.256;9.410;2023-08-07T05:43:50;13.30;99.90
13711;DHT22;6927;51.256;9.410;2023-08-07T05:46:15;13.30;99.90
13711;DHT22;6927;51.256;9.410;2023-08-07T05:48:41;13.30;99.90
13711;DHT22;6927;51.256;9.410;2023-08-07T05:51:07;13.40;99.90
13711;DHT22;6927;51.256;9.410;2023-08-07T05:53:33;13.40;99.90
13711;DHT22;6927;51.256;9.410;2023-08-07T05:55:59;13.40;99.90
13711;DHT22;6927;51.256;9.410;2023-08-07T05:58:24;13.50;99.90
13711;DHT22;6927;51.256;9.410;2023-08-07T06:00:50;13.50;99.90
13711;DHT22;6927;51.256;9.410;2023-08-07T06:03:15;13.50;99.90
13711;DHT22;6927;51.256;9.410;2023-08-07T06:05:41;13.50;99.90
13711;DHT22;6927;51.256;9.410;2023-08-07T06:08:07;13.50;99.90
13711;DHT22;6927;51.256;9.410;2023-08-07T06:10:32;13.50;99.90
13711;DHT22;6927;51.256;9.410;2023-08-07T06:12:58;13.60;99.90
13711;DHT22;6927;51.256;9.410;2023-08-07T06:15:23;13.60;99.90
13711;DHT22;6927;51.256;9.410;2023-08-07T06:17:49;13.60;99.90
13711;DHT22;6927;51.256;9.410;2023-08-07T06:20:16;13.60;99.90
13711;DHT22;6927;51.256;9.410;2023-08-07T06:22:42;13.70;99.90
13711;DHT22;6927;51.256;9.410;2023-08-07T06:25:08;13.70;99.90
13711;DHT22;6927;51.256;9.410;2023-08-07T06:27:33;13.70;99.90
13711;DHT22;6927;51.256;9.410;2023-08-07T06:29:59;13.70;99.90
13711;DHT22;6927;51.256;9.410;2023-08-07T06:32:25;13.70;99.90
13711;DHT22;6927;51.256;9.410;2023-08-07T06:34:52;13.70;99.90
13711;DHT22;6927;51.256;9.410;2023-08-07T06:37:17;13.70;99.90
13711;DHT22;6927;51.256;9.410;2023-08-07T06:39:43;13.70;99.90
13711;DHT22;6927;51.256;9.410;2023-08-07T06:42:16;13.60;99.90
13711;DHT22;6927;51.256;9.410;2023-08-07T06:44:47;13.60;99.90
13711;DHT22;6927;51.256;9.410;2023-08-07T06:47:21;13.60;99.90
13711;DHT22;6927;51.256;9.410;2023-08-07T06:49:49;13.60;99.90
13711;DHT22;6927;51.256;9.410;2023-08-07T06:52:20;13.60;99.90
13711;DHT22;6927;51.256;9.410;2023-08-07T06:54:45;13.60;99.90
13711;DHT22;6927;51.256;9.410;2023-08-07T06:57:14;13.60;99.90
13711;DHT22;6927;51.256;9.410;2023-08-07T06:59:43;13.60;99.90
13711;DHT22;6927;51.256;9.410;2023-08-07T07:02:21;13.50;99.90
13711;DHT22;6927;51.256;9.410;2023-08-07T07:04:52;13.50;99.90
13711;DHT22;6927;51.256;9.410;2023-08-07T07:07:20;13.50;99.90
13711;DHT22;6927;51.256;9.410;2023-08-07T07:09:46;13.50;99.90
13711;DHT22;6927;51.256;9.410;2023-08-07T07:12:17;13.50;99.90
13711;DHT22;6927;51.256;9.410;2023-08-07T07:14:56;13.50;99.90
13711;DHT22;6927;51.256;9.410;2023-08-07T07:17:24;13.40;99.90
13711;DHT22;6927;51.256;9.410;2023-08-07T07:20:08;13.40;99.90
13711;DHT22;6927;51.256;9.410;2023-08-07T07:22:58;13.40;99.90
13711;DHT22;6927;51.256;9.410;2023-08-07T07:25:29;13.40;99.90
13711;DHT22;6927;51.256;9.410;2023-08-07T07:27:54;13.50;99.90
13711;DHT22;6927;51.256;9.410;2023-08-07T07:30:20;13.50;99.90
13711;DHT22;6927;51.256;9.410;2023-08-07T07:32:47;13.50;99.90
13711;DHT22;6927;51.256;9.410;2023-08-07T07:35:13;13.50;99.90
13711;DHT22;6927;51.256;9.410;2023-08-07T07:37:41;13.70;99.90
13711;DHT22;6927;51.256;9.410;2023-08-07T07:40:08;13.80;99.90
13711;DHT22;6927;51.256;9.410;2023-08-07T07:42:36;13.80;99.90
13711;DHT22;6927;51.256;9.410;2023-08-07T07:45:05;13.90;99.90
13711;DHT22;6927;51.256;9.410;2023-08-07T07:47:30;14.00;99.90
13711;DHT22;6927;51.256;9.410;2023-08-07T07:50:09;14.10;99.90
13711;DHT22;6927;51.256;9.410;2023-08-07T07:52:34;14.10;99.90
13711;DHT22;6927;51.256;9.410;2023-08-07T07:55:03;14.10;99.90
13711;DHT22;6927;51.256;9.410;2023-08-07T07:57:33;14.10;99.90
13711;DHT22;6927;51.256;9.410;2023-08-07T08:00:02;14.20;99.90
13711;DHT22;6927;51.256;9.410;2023-08-07T08:02:37;14.20;99.90
13711;DHT22;6927;51.256;9.410;2023-08-07T08:05:15;14.30;99.90
13711;DHT22;6927;51.256;9.410;2023-08-07T08:07:49;14.40;99.90
13711;DHT22;6927;51.256;9.410;2023-08-07T08:10:15;14.40;99.90
13711;DHT22;6927;51.256;9.410;2023-08-07T08:12:41;14.40;99.90
13711;DHT22;6927;51.256;9.410;2023-08-07T08:15:09;14.30;99.90
13711;DHT22;6927;51.256;9.410;2023-08-07T08:17:44;14.30;99.90
13711;DHT22;6927;51.256;9.410;2023-08-07T08:20:10;14.30;99.90
13711;DHT22;6927;51.256;9.410;2023-08-07T08:22:42;14.30;99.90
13711;DHT22;6927;51.256;9.410;2023-08-07T08:25:07;14.30;99.90
13711;DHT22;6927;51.256;9.410;2023-08-07T08:27:40;14.40;99.90
13711;DHT22;6927;51.256;9.410;2023-08-07T08:30:07;14.40;99.90
13711;DHT22;6927;51.256;9.410;2023-08-07T08:32:36;14.50;99.90
13711;DHT22;6927;51.256;9.410;2023-08-07T08:35:13;14.50;99.90
13711;DHT22;6927;51.256;9.410;2023-08-07T08:38:06;14.50;99.90
13711;DHT22;6927;51.256;9.410;2023-08-07T08:43:56;14.40;99.90
13711;DHT22;6927;51.256;9.410;2023-08-07T08:46:26;14.40;99.90
13711;DHT22;6927;51.256;9.410;2023-08-07T08:48:57;14.50;99.90
13711;DHT22;6927;51.256;9.410;2023-08-07T08:51:41;14.50;99.90
13711;DHT22;6927;51.256;9.410;2023-08-07T08:54:45;14.60;99.90
13711;DHT22;6927;51.256;9.410;2023-08-07T08:57:20;14.70;99.90
13711;DHT22;6927;51.256;9.410;2023-08-07T09:03:14;14.80;99.90
13711;DHT22;6927;51.256;9.410;2023-08-07T09:05:58;14.80;99.90
13711;DHT22;6927;51.256;9.410;2023-08-07T09:08:35;15.00;99.90
13711;DHT22;6927;51.256;9.410;2023-08-07T09:11:14;15.70;99.90
13711;DHT22;6927;51.256;9.410;2023-08-07T09:13:43;17.60;99.90
13711;DHT22;6927;51.256;9.410;2023-08-07T09:16:14;19.30;99.90
13711;DHT22;6927;51.256;9.410;2023-08-07T09:18:46;20.00;99.90
13711;DHT22;6927;51.256;9.410;2023-08-07T09:21:23;19.80;99.90
13711;DHT22;6927;51.256;9.410;2023-08-07T09:23:52;19.10;99.90
13711;DHT22;6927;51.256;9.410;2023-08-07T09:26:24;18.40;99.90
13711;DHT22;6927;51.256;9.410;2023-08-07T09:28:52;17.80;99.90
13711;DHT22;6927;51.256;9.410;2023-08-07T09:31:19;17.50;99.90
13711;DHT22;6927;51.256;9.410;2023-08-07T09:34:03;17.20;99.90
13711;DHT22;6927;51.256;9.410;2023-08-07T09:36:33;16.90;99.90
13711;DHT22;6927;51.256;9.410;2023-08-07T09:39:03;16.80;99.90
13711;DHT22;6927;51.256;9.410;2023-08-07T09:41:30;16.40;99.90
13711;DHT22;6927;51.256;9.410;2023-08-07T09:43:56;16.30;99.90
13711;DHT22;6927;51.256;9.410;2023-08-07T09:46:25;16.50;99.90
13711;DHT22;6927;51.256;9.410;2023-08-07T09:48:52;17.20;99.90
13711;DHT22;6927;51.256;9.410;2023-08-07T09:51:25;17.80;99.90
13711;DHT22;6927;51.256;9.410;2023-08-07T09:53:51;17.90;99.90
13711;DHT22;6927;51.256;9.410;2023-08-07T09:56:16;17.50;99.90
13711;DHT22;6927;51.256;9.410;2023-08-07T09:58:46;16.90;99.90
13711;DHT22;6927;51.256;9.410;2023-08-07T10:01:15;16.50;99.90
13711;DHT22;6927;51.256;9.410;2023-08-07T10:03:41;16.40;99.90
13711;DHT22;6927;51.256;9.410;2023-08-07T10:06:07;16.60;99.90
13711;DHT22;6927;51.256;9.410;2023-08-07T10:08:34;17.10;99.90
13711;DHT22;6927;51.256;9.410;2023-08-07T10:11:01;17.40;99.90
13711;DHT22;6927;51.256;9.410;2023-08-07T10:13:30;17.30;99.90
13711;DHT22;6927;51.256;9.410;2023-08-07T10:15:56;17.00;99.90
13711;DHT22;6927;51.256;9.410;2023-08-07T10:18:21;16.80;99.90
13711;DHT22;6927;51.256;9.410;2023-08-07T10:20:47;16.60;99.90
13711;DHT22;6927;51.256;9.410;2023-08-07T10:23:14;16.50;99.90
13711;DHT22;6927;51.256;9.410;2023-08-07T10:25:43;16.60;99.90
13711;DHT22;6927;51.256;9.410;2023-08-07T10:28:15;17.20;99.90
13711;DHT22;6927;51.256;9.410;2023-08-07T10:30:42;17.60;99.90
13711;DHT22;6927;51.256;9.410;2023-08-07T10:33:09;18.50;99.90
13711;DHT22;6927;51.256;9.410;2023-08-07T10:35:35;19.30;99.90
13711;DHT22;6927;51.256;9.410;2023-08-07T10:38:08;19.40;99.90
13711;DHT22;6927;51.256;9.410;2023-08-07T10:40:33;19.00;99.90
13711;DHT22;6927;51.256;9.410;2023-08-07T10:43:12;18.60;99.90
13711;DHT22;6927;51.256;9.410;2023-08-07T10:45:38;17.90;99.90
13711;DHT22;6927;51.256;9.410;2023-08-07T10:48:11;17.50;99.90
13711;DHT22;6927;51.256;9.410;2023-08-07T10:50:56;17.10;99.90
13711;DHT22;6927;51.256;9.410;2023-08-07T10:53:36;16.80;99.90
13711;DHT22;6927;51.256;9.410;2023-08-07T10:56:06;16.60;99.90
13711;DHT22;6927;51.256;9.410;2023-08-07T11:03:51;16.20;99.90
13711;DHT22;6927;51.256;9.410;2023-08-07T11:06:18;16.20;99.90
13711;DHT22;6927;51.256;9.410;2023-08-07T11:08:48;16.30;99.90
13711;DHT22;6927;51.256;9.410;2023-08-07T11:11:14;16.20;99.90
13711;DHT22;6927;51.256;9.410;2023-08-07T11:13:39;16.30;99.90
13711;DHT22;6927;51.256;9.410;2023-08-07T11:16:05;16.50;99.90
13711;DHT22;6927;51.256;9.410;2023-08-07T11:18:47;16.60;99.90
13711;DHT22;6927;51.256;9.410;2023-08-07T11:21:13;16.60;99.90
13711;DHT22;6927;51.256;9.410;2023-08-07T11:23:39;16.60;99.90
13711;DHT22;6927;51.256;9.410;2023-08-07T11:26:14;16.80;99.90
13711;DHT22;6927;51.256;9.410;2023-08-07T11:28:39;16.90;99.90
13711;DHT22;6927;51.256;9.410;2023-08-07T11:31:08;17.00;99.90
13711;DHT22;6927;51.256;9.410;2023-08-07T11:33:36;16.90;99.90
13711;DHT22;6927;51.256;9.410;2023-08-07T11:36:01;17.10;99.90
13711;DHT22;6927;51.256;9.410;2023-08-07T11:38:36;17.20;99.90
13711;DHT22;6927;51.256;9.410;2023-08-07T11:41:12;17.50;99.90
13711;DHT22;6927;51.256;9.410;2023-08-07T11:43:42;17.70;99.90
13711;DHT22;6927;51.256;9.410;2023-08-07T11:46:26;17.90;99.90
13711;DHT22;6927;51.256;9.410;2023-08-07T11:49:00;18.40;99.90
13711;DHT22;6927;51.256;9.410;2023-08-07T11:51:28;18.60;99.90
13711;DHT22;6927;51.256;9.410;2023-08-07T11:56:41;18.10;99.90
13711;DHT22;6927;51.256;9.410;2023-08-07T11:59:11;17.70;99.90
13711;DHT22;6927;51.256;9.410;2023-08-07T12:01:55;17.40;99.90
13711;DHT22;6927;51.256;9.410;2023-08-07T12:04:31;17.70;99.90
13711;DHT22;6927;51.256;9.410;2023-08-07T12:07:18;18.60;99.90
13711;DHT22;6927;51.256;9.410;2023-08-07T12:09:45;19.00;99.90
13711;DHT22;6927;51.256;9.410;2023-08-07T12:12:19;19.50;99.90
13711;DHT22;6927;51.256;9.410;2023-08-07T12:14:54;19.50;99.90
13711;DHT22;6927;51.256;9.410;2023-08-07T12:17:24;19.20;99.90
13711;DHT22;6927;51.256;9.410;2023-08-07T12:19:50;18.80;99.90
13711;DHT22;6927;51.256;9.410;2023-08-07T12:22:19;18.60;99.90
13711;DHT22;6927;51.256;9.410;2023-08-07T12:24:48;18.50;99.90
13711;DHT22;6927;51.256;9.410;2023-08-07T12:27:13;17.90;99.90
13711;DHT22;6927;51.256;9.410;2023-08-07T12:29:44;17.00;99.90
13711;DHT22;6927;51.256;9.410;2023-08-07T12:32:09;16.40;99.90
13711;DHT22;6927;51.256;9.410;2023-08-07T12:34:38;16.10;99.90
13711;DHT22;6927;51.256;9.410;2023-08-07T12:39:47;16.50;99.90
13711;DHT22;6927;51.256;9.410;2023-08-07T12:42:12;17.30;99.90
13711;DHT22;6927;51.256;9.410;2023-08-07T12:44:38;18.00;99.90
13711;DHT22;6927;51.256;9.410;2023-08-07T12:47:04;18.20;99.90
13711;DHT22;6927;51.256;9.410;2023-08-07T12:49:29;17.90;99.90
13711;DHT22;6927;51.256;9.410;2023-08-07T12:51:55;17.90;99.90
13711;DHT22;6927;51.256;9.410;2023-08-07T12:54:23;17.90;99.90
13711;DHT22;6927;51.256;9.410;2023-08-07T12:56:48;18.10;99.90
13711;DHT22;6927;51.256;9.410;2023-08-07T12:59:14;18.30;99.90
13711;DHT22;6927;51.256;9.410;2023-08-07T13:01:39;18.50;99.90
13711;DHT22;6927;51.256;9.410;2023-08-07T13:04:05;18.30;99.90
13711;DHT22;6927;51.256;9.410;2023-08-07T13:06:31;18.20;99.90
13711;DHT22;6927;51.256;9.410;2023-08-07T13:08:56;18.20;99.90
13711;DHT22;6927;51.256;9.410;2023-08-07T13:11:22;18.30;99.90
13711;DHT22;6927;51.256;9.410;2023-08-07T13:13:48;18.70;99.90
13711;DHT22;6927;51.256;9.410;2023-08-07T13:16:13;18.80;99.90
13711;DHT22;6927;51.256;9.410;2023-08-07T13:18:39;18.70;99.90
13711;DHT22;6927;51.256;9.410;2023-08-07T13:21:04;18.20;99.90
13711;DHT22;6927;51.256;9.410;2023-08-07T13:23:30;17.60;99.90
13711;DHT22;6927;51.256;9.410;2023-08-07T13:25:55;17.30;99.90
13711;DHT22;6927;51.256;9.410;2023-08-07T13:28:21;17.20;99.90
13711;DHT22;6927;51.256;9.410;2023-08-07T13:30:46;17.40;99.90
13711;DHT22;6927;51.256;9.410;2023-08-07T13:33:12;18.00;99.90
13711;DHT22;6927;51.256;9.410;2023-08-07T13:35:38;18.10;99.90
13711;DHT22;6927;51.256;9.410;2023-08-07T13:38:03;18.20;99.90
13711;DHT22;6927;51.256;9.410;2023-08-07T13:40:31;18.20;99.90
13711;DHT22;6927;51.256;9.410;2023-08-07T13:42:57;18.70;99.90
13711;DHT22;6927;51.256;9.410;2023-08-07T13:45:22;19.20;99.90
13711;DHT22;6927;51.256;9.410;2023-08-07T13:47:48;19.60;99.90
13711;DHT22;6927;51.256;9.410;2023-08-07T13:50:13;19.80;99.90
13711;DHT22;6927;51.256;9.410;2023-08-07T13:52:39;20.10;99.90
13711;DHT22;6927;51.256;9.410;2023-08-07T13:55:05;20.20;99.90
13711;DHT22;6927;51.256;9.410;2023-08-07T13:57:31;19.90;99.90
13711;DHT22;6927;51.256;9.410;2023-08-07T13:59:56;19.80;99.90
13711;DHT22;6927;51.256;9.410;2023-08-07T14:02:22;20.00;99.90
13711;DHT22;6927;51.256;9.410;2023-08-07T14:04:48;19.90;99.90
13711;DHT22;6927;51.256;9.410;2023-08-07T14:07:14;19.60;99.90
13711;DHT22;6927;51.256;9.410;2023-08-07T14:09:39;19.20;99.90
13711;DHT22;6927;51.256;9.410;2023-08-07T14:12:05;18.90;99.90
13711;DHT22;6927;51.256;9.410;2023-08-07T14:14:31;18.60;99.90
13711;DHT22;6927;51.256;9.410;2023-08-07T14:16:56;18.30;99.90
13711;DHT22;6927;51.256;9.410;2023-08-07T14:19:25;18.20;99.90
13711;DHT22;6927;51.256;9.410;2023-08-07T14:21:51;18.30;99.90
13711;DHT22;6927;51.256;9.410;2023-08-07T14:24:17;18.40;99.90
13711;DHT22;6927;51.256;9.410;2023-08-07T14:26:42;18.60;99.90
13711;DHT22;6927;51.256;9.410;2023-08-07T14:29:08;19.00;99.90
13711;DHT22;6927;51.256;9.410;2023-08-07T14:31:34;19.30;99.90
13711;DHT22;6927;51.256;9.410;2023-08-07T14:34:05;19.40;99.90
13711;DHT22;6927;51.256;9.410;2023-08-07T14:36:31;19.60;99.90
13711;DHT22;6927;51.256;9.410;2023-08-07T14:38:56;19.80;99.90
13711;DHT22;6927;51.256;9.410;2023-08-07T14:41:22;19.90;99.90
13711;DHT22;6927;51.256;9.410;2023-08-07T14:43:47;19.80;99.90
13711;DHT22;6927;51.256;9.410;2023-08-07T14:46:15;19.70;99.90
13711;DHT22;6927;51.256;9.410;2023-08-07T14:48:41;19.50;99.90
13711;DHT22;6927;51.256;9.410;2023-08-07T14:51:07;19.30;99.90
13711;DHT22;6927;51.256;9.410;2023-08-07T14:53:32;19.30;99.90
13711;DHT22;6927;51.256;9.410;2023-08-07T14:55:58;19.40;99.90
13711;DHT22;6927;51.256;9.410;2023-08-07T14:58:23;19.30;99.90
13711;DHT22;6927;51.256;9.410;2023-08-07T15:00:49;19.20;99.90
13711;DHT22;6927;51.256;9.410;2023-08-07T15:03:18;19.20;99.90
13711;DHT22;6927;51.256;9.410;2023-08-07T15:05:44;18.90;99.90
13711;DHT22;6927;51.256;9.410;2023-08-07T15:08:09;18.80;99.90
13711;DHT22;6927;51.256;9.410;2023-08-07T15:10:35;18.60;99.90
13711;DHT22;6927;51.256;9.410;2023-08-07T15:13:02;18.80;99.90
13711;DHT22;6927;51.256;9.410;2023-08-07T15:15:27;18.70;99.90
13711;DHT22;6927;51.256;9.410;2023-08-07T15:17:53;18.60;99.90
13711;DHT22;6927;51.256;9.410;2023-08-07T15:20:18;18.60;99.90
13711;DHT22;6927;51.256;9.410;2023-08-07T15:22:46;18.50;99.90
13711;DHT22;6927;51.256;9.410;2023-08-07T15:25:12;18.50;99.90
13711;DHT22;6927;51.256;9.410;2023-08-07T15:27:37;18.40;99.90
13711;DHT22;6927;51.256;9.410;2023-08-07T15:30:03;18.30;99.90
13711;DHT22;6927;51.256;9.410;2023-08-07T15:32:29;18.20;99.90
13711;DHT22;6927;51.256;9.410;2023-08-07T15:34:54;18.30;99.90
13711;DHT22;6927;51.256;9.410;2023-08-07T15:37:20;18.50;99.90
13711;DHT22;6927;51.256;9.410;2023-08-07T15:39:45;18.90;99.90
13711;DHT22;6927;51.256;9.410;2023-08-07T15:42:11;19.20;99.90
13711;DHT22;6927;51.256;9.410;2023-08-07T15:44:36;19.30;99.90
13711;DHT22;6927;51.256;9.410;2023-08-07T15:47:04;19.10;99.90
13711;DHT22;6927;51.256;9.410;2023-08-07T15:49:29;18.80;99.90
13711;DHT22;6927;51.256;9.410;2023-08-07T15:51:55;18.50;99.90
13711;DHT22;6927;51.256;9.410;2023-08-07T15:54:21;18.50;99.90
13711;DHT22;6927;51.256;9.410;2023-08-07T15:56:46;18.60;99.90
13711;DHT22;6927;51.256;9.410;2023-08-07T15:59:12;18.70;99.90
13711;DHT22;6927;51.256;9.410;2023-08-07T16:01:38;18.60;99.90
13711;DHT22;6927;51.256;9.410;2023-08-07T16:04:03;18.50;99.90
13711;DHT22;6927;51.256;9.410;2023-08-07T16:06:29;18.40;99.90
13711;DHT22;6927;51.256;9.410;2023-08-07T16:08:55;18.20;99.90
13711;DHT22;6927;51.256;9.410;2023-08-07T16:11:22;18.00;99.90